TimeEDT,TemperatureF,Dew PointF,Humidity,Sea Level PressureIn,VisibilityMPH,Wind Direction,Wind SpeedMPH,Gust SpeedMPH,PrecipitationIn,Events,Conditions,WindDirDegrees,DateUTC
12:52 AM,36.0,32.0,86,30.30,10.0,Calm,Calm,-,N/A,,Clear,0,2013-03-10 05:52:00
1:52 AM,35.1,32.0,89,30.29,10.0,Calm,Calm,-,N/A,,Clear,0,2013-03-10 06:52:00
3:52 AM,34.0,30.9,89,30.27,10.0,Calm,Calm,-,N/A,,Clear,0,2013-03-10 07:52:00
4:52 AM,32.0,30.9,96,30.27,9.0,Calm,Calm,-,N/A,,Clear,0,2013-03-10 08:52:00
5:52 AM,33.1,30.9,92,30.29,10.0,Calm,Calm,-,N/A,,Clear,0,2013-03-10 09:52:00
6:52 AM,32.0,30.0,92,30.28,9.0,NE,4.6,-,N/A,,Clear,50,2013-03-10 10:52:00
8:52 AM,42.1,34.0,73,30.31,10.0,Calm,Calm,-,N/A,,Clear,0,2013-03-10 12:52:00
9:52 AM,48.9,36.0,61,30.32,10.0,East,3.5,-,N/A,,Clear,100,2013-03-10 13:52:00
10:52 AM,55.0,35.1,47,30.32,10.0,SE,4.6,-,N/A,,Clear,140,2013-03-10 14:52:00
11:52 AM,60.1,30.9,33,30.31,10.0,SE,6.9,-,N/A,,Clear,130,2013-03-10 15:52:00
12:52 PM,62.1,28.9,29,30.30,10.0,ESE,8.1,-,N/A,,Clear,120,2013-03-10 16:52:00
1:52 PM,64.0,28.0,26,30.27,10.0,East,9.2,-,N/A,,Clear,100,2013-03-10 17:52:00
2:52 PM,64.9,27.0,24,30.24,10.0,SSE,5.8,-,N/A,,Clear,160,2013-03-10 18:52:00
3:52 PM,68.0,25.0,20,30.23,10.0,Variable,5.8,-,N/A,,Clear,0,2013-03-10 19:52:00
4:52 PM,66.9,23.0,19,30.22,10.0,SE,9.2,-,N/A,,Clear,140,2013-03-10 20:52:00
5:52 PM,66.9,24.1,20,30.21,10.0,South,6.9,-,N/A,,Clear,190,2013-03-10 21:52:00
6:52 PM,64.0,23.0,21,30.22,10.0,South,6.9,-,N/A,,Clear,180,2013-03-10 22:52:00
7:52 PM,57.0,28.0,33,30.22,10.0,SSE,4.6,-,N/A,,Clear,150,2013-03-10 23:52:00
8:52 PM,53.1,28.0,38,30.23,10.0,SSE,10.4,-,N/A,,Clear,150,2013-03-11 00:52:00
9:52 PM,51.1,30.9,46,30.25,10.0,South,6.9,-,N/A,,Clear,170,2013-03-11 01:52:00
10:52 PM,48.0,32.0,54,30.26,10.0,SSE,4.6,-,N/A,,Clear,150,2013-03-11 02:52:00
12:52 AM,42.1,33.1,70,30.24,10.0,Calm,Calm,-,N/A,,Clear,0,2013-03-11 04:52:00